sensor_id;sensor_type;location;lat;lon;timestamp;temperature;humidity
73586;DHT22;61865;50.232;18.614;2022-11-04T00:02:15;10.70;99.90
73586;DHT22;61865;50.232;18.614;2022-11-04T00:04:36;10.60;99.90
73586;DHT22;61865;50.232;18.614;2022-11-04T00:06:58;10.50;99.90
73586;DHT22;61865;50.232;18.614;2022-11-04T00:09:21;10.50;99.90
73586;DHT22;61865;50.232;18.614;2022-11-04T00:11:43;10.50;99.90
73586;DHT22;61865;50.232;18.614;2022-11-04T00:14:22;10.40;99.90
73586;DHT22;61865;50.232;18.614;2022-11-04T00:16:47;10.40;99.90
73586;DHT22;61865;50.232;18.614;2022-11-04T00:19:26;10.40;99.90
73586;DHT22;61865;50.232;18.614;2022-11-04T00:21:48;10.40;99.90
73586;DHT22;61865;50.232;18.614;2022-11-04T00:24:27;10.50;99.90
73586;DHT22;61865;50.232;18.614;2022-11-04T00:27:07;10.50;99.90
73586;DHT22;61865;50.232;18.614;2022-11-04T00:29:46;10.60;99.90
73586;DHT22;61865;50.232;18.614;2022-11-04T00:32:10;10.60;99.90
73586;DHT22;61865;50.232;18.614;2022-11-04T00:34:54;10.60;99.90
73586;DHT22;61865;50.232;18.614;2022-11-04T00:37:16;10.60;99.90
73586;DHT22;61865;50.232;18.614;2022-11-04T00:39:38;10.60;99.90
73586;DHT22;61865;50.232;18.614;2022-11-04T00:41:59;10.70;99.90
73586;DHT22;61865;50.232;18.614;2022-11-04T00:44:21;10.70;99.90
73586;DHT22;61865;50.232;18.614;2022-11-04T00:46:43;10.70;99.90
73586;DHT22;61865;50.232;18.614;2022-11-04T00:49:06;10.80;99.90
73586;DHT22;61865;50.232;18.614;2022-11-04T00:51:28;10.80;99.90
73586;DHT22;61865;50.232;18.614;2022-11-04T00:53:50;10.80;99.90
73586;DHT22;61865;50.232;18.614;2022-11-04T00:56:12;10.80;99.90
73586;DHT22;61865;50.232;18.614;2022-11-04T00:58:34;10.90;99.90
73586;DHT22;61865;50.232;18.614;2022-11-04T01:00:56;10.90;99.90
73586;DHT22;61865;50.232;18.614;2022-11-04T01:03:17;10.90;99.90
73586;DHT22;61865;50.232;18.614;2022-11-04T01:05:40;10.90;99.90
73586;DHT22;61865;50.232;18.614;2022-11-04T01:08:03;10.90;99.90
73586;DHT22;61865;50.232;18.614;2022-11-04T01:10:24;10.90;99.90
73586;DHT22;61865;50.232;18.614;2022-11-04T01:12:46;10.80;99.90
73586;DHT22;61865;50.232;18.614;2022-11-04T01:15:08;10.80;99.90
73586;DHT22;61865;50.232;18.614;2022-11-04T01:17:30;10.80;99.90
73586;DHT22;61865;50.232;18.614;2022-11-04T01:19:52;10.90;99.90
73586;DHT22;61865;50.232;18.614;2022-11-04T01:22:15;10.90;99.90
73586;DHT22;61865;50.232;18.614;2022-11-04T01:24:37;10.90;99.90
73586;DHT22;61865;50.232;18.614;2022-11-04T01:26:58;10.90;99.90
73586;DHT22;61865;50.232;18.614;2022-11-04T01:29:20;10.90;99.90
73586;DHT22;61865;50.232;18.614;2022-11-04T01:31:42;10.90;99.90
73586;DHT22;61865;50.232;18.614;2022-11-04T01:34:04;10.90;99.90
73586;DHT22;61865;50.232;18.614;2022-11-04T01:36:26;10.90;99.90
73586;DHT22;61865;50.232;18.614;2022-11-04T01:38:49;10.90;99.90
73586;DHT22;61865;50.232;18.614;2022-11-04T01:41:15;10.90;99.90
73586;DHT22;61865;50.232;18.614;2022-11-04T01:43:44;10.80;99.90
73586;DHT22;61865;50.232;18.614;2022-11-04T01:46:08;10.80;99.90
73586;DHT22;61865;50.232;18.614;2022-11-04T01:48:31;10.80;99.90
73586;DHT22;61865;50.232;18.614;2022-11-04T01:50:54;10.80;99.90
73586;DHT22;61865;50.232;18.614;2022-11-04T01:53:16;10.80;99.90
73586;DHT22;61865;50.232;18.614;2022-11-04T01:55:42;10.80;99.90
73586;DHT22;61865;50.232;18.614;2022-11-04T01:58:07;10.70;99.90
73586;DHT22;61865;50.232;18.614;2022-11-04T02:00:29;10.80;99.90
73586;DHT22;61865;50.232;18.614;2022-11-04T02:02:53;10.80;99.90
73586;DHT22;61865;50.232;18.614;2022-11-04T02:05:16;10.80;99.90
73586;DHT22;61865;50.232;18.614;2022-11-04T02:07:38;10.80;99.90
73586;DHT22;61865;50.232;18.614;2022-11-04T02:09:59;10.80;99.90
73586;DHT22;61865;50.232;18.614;2022-11-04T02:12:23;10.80;99.90
73586;DHT22;61865;50.232;18.614;2022-11-04T02:15:02;10.90;99.90
73586;DHT22;61865;50.232;18.614;2022-11-04T02:20:09;10.80;99.90
73586;DHT22;61865;50.232;18.614;2022-11-04T02:22:43;10.80;99.90
73586;DHT22;61865;50.232;18.614;2022-11-04T02:25:27;10.80;99.90
73586;DHT22;61865;50.232;18.614;2022-11-04T02:28:04;10.70;99.90
73586;DHT22;61865;50.232;18.614;2022-11-04T02:30:33;10.60;99.90
73586;DHT22;61865;50.232;18.614;2022-11-04T02:33:04;10.60;99.90
73586;DHT22;61865;50.232;18.614;2022-11-04T02:35:30;10.50;99.90
73586;DHT22;61865;50.232;18.614;2022-11-04T02:37:55;10.50;99.90
73586;DHT22;61865;50.232;18.614;2022-11-04T02:40:20;10.40;99.90
73586;DHT22;61865;50.232;18.614;2022-11-04T02:42:47;10.40;99.90
73586;DHT22;61865;50.232;18.614;2022-11-04T02:45:12;10.40;99.90
73586;DHT22;61865;50.232;18.614;2022-11-04T02:47:36;10.50;99.90
73586;DHT22;61865;50.232;18.614;2022-11-04T02:49:59;10.50;99.90
73586;DHT22;61865;50.232;18.614;2022-11-04T02:52:25;10.60;99.90
73586;DHT22;61865;50.232;18.614;2022-11-04T02:54:48;10.70;96.90
73586;DHT22;61865;50.232;18.614;2022-11-04T02:57:12;10.70;95.10
73586;DHT22;61865;50.232;18.614;2022-11-04T02:59:36;10.80;94.10
73586;DHT22;61865;50.232;18.614;2022-11-04T03:02:00;10.80;92.20
73586;DHT22;61865;50.232;18.614;2022-11-04T03:04:26;10.90;92.10
73586;DHT22;61865;50.232;18.614;2022-11-04T03:06:48;10.90;92.10
73586;DHT22;61865;50.232;18.614;2022-11-04T03:09:11;11.00;91.30
73586;DHT22;61865;50.232;18.614;2022-11-04T03:11:34;11.00;90.90
73586;DHT22;61865;50.232;18.614;2022-11-04T03:13:57;11.00;92.10
73586;DHT22;61865;50.232;18.614;2022-11-04T03:16:19;11.00;93.40
73586;DHT22;61865;50.232;18.614;2022-11-04T03:18:46;11.00;95.30
73586;DHT22;61865;50.232;18.614;2022-11-04T03:21:14;11.00;94.10
73586;DHT22;61865;50.232;18.614;2022-11-04T03:23:36;11.00;94.20
73586;DHT22;61865;50.232;18.614;2022-11-04T03:26:01;11.00;92.90
73586;DHT22;61865;50.232;18.614;2022-11-04T03:28:26;11.00;91.00
73586;DHT22;61865;50.232;18.614;2022-11-04T03:30:50;11.00;90.70
73586;DHT22;61865;50.232;18.614;2022-11-04T03:33:15;11.00;91.40
73586;DHT22;61865;50.232;18.614;2022-11-04T03:35:39;11.00;91.00
73586;DHT22;61865;50.232;18.614;2022-11-04T03:38:02;11.00;91.00
73586;DHT22;61865;50.232;18.614;2022-11-04T03:40:24;10.90;90.90
73586;DHT22;61865;50.232;18.614;2022-11-04T03:42:47;10.90;91.20
73586;DHT22;61865;50.232;18.614;2022-11-04T03:45:12;10.90;91.30
73586;DHT22;61865;50.232;18.614;2022-11-04T03:47:34;10.90;91.20
73586;DHT22;61865;50.232;18.614;2022-11-04T03:49:58;10.80;91.60
73586;DHT22;61865;50.232;18.614;2022-11-04T03:52:20;10.80;91.70
73586;DHT22;61865;50.232;18.614;2022-11-04T03:54:44;10.70;92.20
73586;DHT22;61865;50.232;18.614;2022-11-04T03:57:13;10.60;93.60
73586;DHT22;61865;50.232;18.614;2022-11-04T04:02:21;10.40;95.50
73586;DHT22;61865;50.232;18.614;2022-11-04T04:04:46;10.30;96.80
73586;DHT22;61865;50.232;18.614;2022-11-04T04:07:11;10.30;97.10
73586;DHT22;61865;50.232;18.614;2022-11-04T04:09:35;10.20;97.50
73586;DHT22;61865;50.232;18.614;2022-11-04T04:12:01;10.20;98.70
73586;DHT22;61865;50.232;18.614;2022-11-04T04:14:26;10.20;98.60
73586;DHT22;61865;50.232;18.614;2022-11-04T04:17:13;10.20;98.50
73586;DHT22;61865;50.232;18.614;2022-11-04T04:19:36;10.20;98.20
73586;DHT22;61865;50.232;18.614;2022-11-04T04:22:00;10.10;98.60
73586;DHT22;61865;50.232;18.614;2022-11-04T04:24:23;10.10;98.30
73586;DHT22;61865;50.232;18.614;2022-11-04T04:27:05;10.10;99.00
73586;DHT22;61865;50.232;18.614;2022-11-04T04:29:45;10.00;99.90
73586;DHT22;61865;50.232;18.614;2022-11-04T04:32:07;9.90;99.70
73586;DHT22;61865;50.232;18.614;2022-11-04T04:34:30;9.90;99.90
73586;DHT22;61865;50.232;18.614;2022-11-04T04:36:53;9.90;99.20
73586;DHT22;61865;50.232;18.614;2022-11-04T04:39:17;9.80;99.80
73586;DHT22;61865;50.232;18.614;2022-11-04T04:41:57;9.80;98.50
73586;DHT22;61865;50.232;18.614;2022-11-04T04:44:38;9.80;99.10
73586;DHT22;61865;50.232;18.614;2022-11-04T04:47:20;9.90;98.40
73586;DHT22;61865;50.232;18.614;2022-11-04T04:49:48;9.80;98.60
73586;DHT22;61865;50.232;18.614;2022-11-04T04:52:09;9.80;98.50
73586;DHT22;61865;50.232;18.614;2022-11-04T04:54:31;9.80;98.60
73586;DHT22;61865;50.232;18.614;2022-11-04T04:56:53;9.80;98.60
73586;DHT22;61865;50.232;18.614;2022-11-04T04:59:15;9.70;99.30
73586;DHT22;61865;50.232;18.614;2022-11-04T05:01:38;9.70;99.80
73586;DHT22;61865;50.232;18.614;2022-11-04T05:03:59;9.60;99.90
73586;DHT22;61865;50.232;18.614;2022-11-04T05:06:21;9.50;99.90
73586;DHT22;61865;50.232;18.614;2022-11-04T05:08:43;9.50;99.90
73586;DHT22;61865;50.232;18.614;2022-11-04T05:11:05;9.50;99.90
73586;DHT22;61865;50.232;18.614;2022-11-04T05:13:26;9.50;99.90
73586;DHT22;61865;50.232;18.614;2022-11-04T05:15:49;9.50;99.90
73586;DHT22;61865;50.232;18.614;2022-11-04T05:18:12;9.50;99.90
73586;DHT22;61865;50.232;18.614;2022-11-04T05:20:34;9.60;99.90
73586;DHT22;61865;50.232;18.614;2022-11-04T05:22:57;9.60;99.90
73586;DHT22;61865;50.232;18.614;2022-11-04T05:25:19;9.60;99.90
73586;DHT22;61865;50.232;18.614;2022-11-04T05:27:41;9.60;99.90
73586;DHT22;61865;50.232;18.614;2022-11-04T05:30:03;9.60;99.90
73586;DHT22;61865;50.232;18.614;2022-11-04T05:32:27;9.60;99.90
73586;DHT22;61865;50.232;18.614;2022-11-04T05:34:50;9.60;99.90
73586;DHT22;61865;50.232;18.614;2022-11-04T05:37:12;9.70;99.90
73586;DHT22;61865;50.232;18.614;2022-11-04T05:39:34;9.70;99.90
73586;DHT22;61865;50.232;18.614;2022-11-04T05:41:56;9.80;99.90
73586;DHT22;61865;50.232;18.614;2022-11-04T05:44:18;9.80;99.90
73586;DHT22;61865;50.232;18.614;2022-11-04T05:46:39;9.90;99.90
73586;DHT22;61865;50.232;18.614;2022-11-04T05:49:01;10.00;99.90
73586;DHT22;61865;50.232;18.614;2022-11-04T05:51:26;10.00;99.90
73586;DHT22;61865;50.232;18.614;2022-11-04T05:53:48;10.10;99.70
73586;DHT22;61865;50.232;18.614;2022-11-04T05:56:09;10.20;99.60
73586;DHT22;61865;50.232;18.614;2022-11-04T05:58:31;10.20;99.70
73586;DHT22;61865;50.232;18.614;2022-11-04T06:00:53;10.20;99.90
73586;DHT22;61865;50.232;18.614;2022-11-04T06:03:15;10.20;99.90
73586;DHT22;61865;50.232;18.614;2022-11-04T06:05:37;10.20;99.90
73586;DHT22;61865;50.232;18.614;2022-11-04T06:08:00;10.20;99.90
73586;DHT22;61865;50.232;18.614;2022-11-04T06:10:22;10.10;99.90
73586;DHT22;61865;50.232;18.614;2022-11-04T06:12:43;10.10;99.90
73586;DHT22;61865;50.232;18.614;2022-11-04T06:15:06;10.10;99.90
73586;DHT22;61865;50.232;18.614;2022-11-04T06:17:27;10.10;99.90
73586;DHT22;61865;50.232;18.614;2022-11-04T06:19:49;10.20;99.90
73586;DHT22;61865;50.232;18.614;2022-11-04T06:22:11;10.10;99.90
73586;DHT22;61865;50.232;18.614;2022-11-04T06:24:34;10.20;99.90
73586;DHT22;61865;50.232;18.614;2022-11-04T06:26:56;10.20;99.90
73586;DHT22;61865;50.232;18.614;2022-11-04T06:29:18;10.20;99.90
73586;DHT22;61865;50.232;18.614;2022-11-04T06:31:40;10.20;99.90
73586;DHT22;61865;50.232;18.614;2022-11-04T06:34:01;10.20;99.90
73586;DHT22;61865;50.232;18.614;2022-11-04T06:36:23;10.20;99.90
73586;DHT22;61865;50.232;18.614;2022-11-04T06:38:45;10.20;99.90
73586;DHT22;61865;50.232;18.614;2022-11-04T06:41:09;10.20;99.90
73586;DHT22;61865;50.232;18.614;2022-11-04T06:43:32;10.20;99.90
73586;DHT22;61865;50.232;18.614;2022-11-04T06:45:53;10.30;99.90
73586;DHT22;61865;50.232;18.614;2022-11-04T06:48:15;10.30;99.90
73586;DHT22;61865;50.232;18.614;2022-11-04T06:50:37;10.40;99.90
73586;DHT22;61865;50.232;18.614;2022-11-04T06:52:59;10.50;99.90
73586;DHT22;61865;50.232;18.614;2022-11-04T06:55:21;10.40;99.90
73586;DHT22;61865;50.232;18.614;2022-11-04T06:57:44;10.50;99.90
73586;DHT22;61865;50.232;18.614;2022-11-04T07:00:06;10.50;99.90
73586;DHT22;61865;50.232;18.614;2022-11-04T07:02:28;10.60;99.90
73586;DHT22;61865;50.232;18.614;2022-11-04T07:04:50;10.60;99.90
73586;DHT22;61865;50.232;18.614;2022-11-04T07:07:12;10.60;99.90
73586;DHT22;61865;50.232;18.614;2022-11-04T07:09:34;10.60;99.90
73586;DHT22;61865;50.232;18.614;2022-11-04T07:11:56;10.60;99.90
73586;DHT22;61865;50.232;18.614;2022-11-04T07:14:20;10.60;99.90
73586;DHT22;61865;50.232;18.614;2022-11-04T07:16:41;10.70;99.90
73586;DHT22;61865;50.232;18.614;2022-11-04T07:19:03;10.70;99.90
73586;DHT22;61865;50.232;18.614;2022-11-04T07:21:25;10.70;99.90
73586;DHT22;61865;50.232;18.614;2022-11-04T07:23:47;10.80;99.90
73586;DHT22;61865;50.232;18.614;2022-11-04T07:26:09;10.80;99.90
73586;DHT22;61865;50.232;18.614;2022-11-04T07:28:31;10.90;99.90
73586;DHT22;61865;50.232;18.614;2022-11-04T07:30:56;10.90;99.90
73586;DHT22;61865;50.232;18.614;2022-11-04T07:33:18;11.00;99.90
73586;DHT22;61865;50.232;18.614;2022-11-04T07:35:40;11.00;99.50
73586;DHT22;61865;50.232;18.614;2022-11-04T07:38:02;11.10;99.00
73586;DHT22;61865;50.232;18.614;2022-11-04T07:40:24;11.10;99.90
73586;DHT22;61865;50.232;18.614;2022-11-04T07:42:46;11.10;99.10
73586;DHT22;61865;50.232;18.614;2022-11-04T07:45:08;11.20;98.40
73586;DHT22;61865;50.232;18.614;2022-11-04T07:47:31;11.20;97.30
73586;DHT22;61865;50.232;18.614;2022-11-04T07:49:53;11.30;96.70
73586;DHT22;61865;50.232;18.614;2022-11-04T07:52:15;11.30;96.40
73586;DHT22;61865;50.232;18.614;2022-11-04T07:54:37;11.40;97.10
73586;DHT22;61865;50.232;18.614;2022-11-04T07:56:59;11.40;96.90
73586;DHT22;61865;50.232;18.614;2022-11-04T07:59:20;11.50;96.20
73586;DHT22;61865;50.232;18.614;2022-11-04T08:01:42;11.50;98.70
73586;DHT22;61865;50.232;18.614;2022-11-04T08:04:06;11.60;96.00
73586;DHT22;61865;50.232;18.614;2022-11-04T08:06:27;11.60;95.90
73586;DHT22;61865;50.232;18.614;2022-11-04T08:08:51;11.70;95.10
73586;DHT22;61865;50.232;18.614;2022-11-04T08:11:13;11.80;94.40
73586;DHT22;61865;50.232;18.614;2022-11-04T08:13:36;11.90;95.30
73586;DHT22;61865;50.232;18.614;2022-11-04T08:16:00;11.90;94.30
73586;DHT22;61865;50.232;18.614;2022-11-04T08:18:22;12.00;94.30
73586;DHT22;61865;50.232;18.614;2022-11-04T08:20:48;12.00;93.50
73586;DHT22;61865;50.232;18.614;2022-11-04T08:23:10;12.10;92.40
73586;DHT22;61865;50.232;18.614;2022-11-04T08:25:32;12.10;91.20
73586;DHT22;61865;50.232;18.614;2022-11-04T08:27:53;12.20;91.30
73586;DHT22;61865;50.232;18.614;2022-11-04T08:30:15;12.20;91.10
73586;DHT22;61865;50.232;18.614;2022-11-04T08:32:37;12.20;91.30
73586;DHT22;61865;50.232;18.614;2022-11-04T08:34:59;12.30;90.40
73586;DHT22;61865;50.232;18.614;2022-11-04T08:37:22;12.40;92.10
73586;DHT22;61865;50.232;18.614;2022-11-04T08:39:44;12.40;91.80
73586;DHT22;61865;50.232;18.614;2022-11-04T08:42:06;12.50;90.90
73586;DHT22;61865;50.232;18.614;2022-11-04T08:44:27;12.60;91.00
73586;DHT22;61865;50.232;18.614;2022-11-04T08:46:49;12.70;90.90
73586;DHT22;61865;50.232;18.614;2022-11-04T08:49:11;12.80;90.10
73586;DHT22;61865;50.232;18.614;2022-11-04T08:51:34;12.90;90.10
73586;DHT22;61865;50.232;18.614;2022-11-04T08:53:58;12.90;90.10
73586;DHT22;61865;50.232;18.614;2022-11-04T08:56:21;13.00;88.40
73586;DHT22;61865;50.232;18.614;2022-11-04T08:58:43;13.10;88.30
73586;DHT22;61865;50.232;18.614;2022-11-04T09:01:05;13.10;88.30
73586;DHT22;61865;50.232;18.614;2022-11-04T09:03:27;13.10;87.80
73586;DHT22;61865;50.232;18.614;2022-11-04T09:05:49;13.10;88.20
73586;DHT22;61865;50.232;18.614;2022-11-04T09:08:11;13.20;88.90
73586;DHT22;61865;50.232;18.614;2022-11-04T09:10:35;13.30;87.90
73586;DHT22;61865;50.232;18.614;2022-11-04T09:12:56;13.20;87.70
73586;DHT22;61865;50.232;18.614;2022-11-04T09:15:18;13.30;88.30
73586;DHT22;61865;50.232;18.614;2022-11-04T09:17:40;13.20;88.40
73586;DHT22;61865;50.232;18.614;2022-11-04T09:20:03;13.30;88.10
73586;DHT22;61865;50.232;18.614;2022-11-04T09:22:26;13.40;88.80
73586;DHT22;61865;50.232;18.614;2022-11-04T09:24:48;13.40;88.00
73586;DHT22;61865;50.232;18.614;2022-11-04T09:27:11;13.50;89.00
73586;DHT22;61865;50.232;18.614;2022-11-04T09:29:34;13.60;85.80
73586;DHT22;61865;50.232;18.614;2022-11-04T09:31:55;13.70;85.80
73586;DHT22;61865;50.232;18.614;2022-11-04T09:34:17;13.90;84.50
73586;DHT22;61865;50.232;18.614;2022-11-04T09:36:39;13.90;84.50
73586;DHT22;61865;50.232;18.614;2022-11-04T09:39:03;14.00;83.10
73586;DHT22;61865;50.232;18.614;2022-11-04T09:41:29;14.00;83.10
73586;DHT22;61865;50.232;18.614;2022-11-04T09:43:57;14.10;82.10
73586;DHT22;61865;50.232;18.614;2022-11-04T09:46:23;14.20;82.90
73586;DHT22;61865;50.232;18.614;2022-11-04T09:48:46;14.20;82.10
73586;DHT22;61865;50.232;18.614;2022-11-04T09:51:09;14.20;83.50
73586;DHT22;61865;50.232;18.614;2022-11-04T09:53:33;14.30;80.30
73586;DHT22;61865;50.232;18.614;2022-11-04T09:55:59;14.40;79.10
73586;DHT22;61865;50.232;18.614;2022-11-04T09:58:21;14.40;78.70
73586;DHT22;61865;50.232;18.614;2022-11-04T10:00:46;14.40;78.00
73586;DHT22;61865;50.232;18.614;2022-11-04T10:03:14;14.40;78.50
73586;DHT22;61865;50.232;18.614;2022-11-04T10:05:43;14.50;78.70
73586;DHT22;61865;50.232;18.614;2022-11-04T10:08:24;14.50;79.60
73586;DHT22;61865;50.232;18.614;2022-11-04T10:10:50;14.50;79.30
73586;DHT22;61865;50.232;18.614;2022-11-04T10:13:17;14.50;80.10
73586;DHT22;61865;50.232;18.614;2022-11-04T10:15:58;14.60;79.70
73586;DHT22;61865;50.232;18.614;2022-11-04T10:18:25;14.60;79.00
73586;DHT22;61865;50.232;18.614;2022-11-04T10:20:51;14.70;78.90
73586;DHT22;61865;50.232;18.614;2022-11-04T10:23:21;14.70;80.00
73586;DHT22;61865;50.232;18.614;2022-11-04T10:25:45;14.70;78.80
73586;DHT22;61865;50.232;18.614;2022-11-04T10:28:08;14.70;79.20
73586;DHT22;61865;50.232;18.614;2022-11-04T10:30:31;14.80;79.70
73586;DHT22;61865;50.232;18.614;2022-11-04T10:33:00;14.80;78.70
73586;DHT22;61865;50.232;18.614;2022-11-04T10:35:26;14.80;79.30
73586;DHT22;61865;50.232;18.614;2022-11-04T10:37:50;14.90;79.50
73586;DHT22;61865;50.232;18.614;2022-11-04T10:40:15;14.90;79.50
73586;DHT22;61865;50.232;18.614;2022-11-04T10:42:39;15.00;79.60
73586;DHT22;61865;50.232;18.614;2022-11-04T10:45:01;15.10;77.10
73586;DHT22;61865;50.232;18.614;2022-11-04T10:47:26;15.20;75.80
73586;DHT22;61865;50.232;18.614;2022-11-04T10:50:01;15.20;75.30
73586;DHT22;61865;50.232;18.614;2022-11-04T10:52:23;15.10;78.00
73586;DHT22;61865;50.232;18.614;2022-11-04T10:54:46;15.10;79.10
73586;DHT22;61865;50.232;18.614;2022-11-04T10:57:08;15.10;78.60
73586;DHT22;61865;50.232;18.614;2022-11-04T10:59:33;15.20;78.10
73586;DHT22;61865;50.232;18.614;2022-11-04T11:01:58;15.20;78.30
73586;DHT22;61865;50.232;18.614;2022-11-04T11:04:24;15.20;79.20
73586;DHT22;61865;50.232;18.614;2022-11-04T11:06:47;15.20;78.20
73586;DHT22;61865;50.232;18.614;2022-11-04T11:09:11;15.20;78.50
73586;DHT22;61865;50.232;18.614;2022-11-04T11:11:34;15.20;78.30
73586;DHT22;61865;50.232;18.614;2022-11-04T11:13:57;15.20;78.60
73586;DHT22;61865;50.232;18.614;2022-11-04T11:16:19;15.20;78.90
73586;DHT22;61865;50.232;18.614;2022-11-04T11:18:41;15.20;78.10
73586;DHT22;61865;50.232;18.614;2022-11-04T11:21:04;15.20;77.10
73586;DHT22;61865;50.232;18.614;2022-11-04T11:23:33;15.20;80.50
73586;DHT22;61865;50.232;18.614;2022-11-04T11:25:55;15.20;81.60
73586;DHT22;61865;50.232;18.614;2022-11-04T11:28:19;15.20;81.50
73586;DHT22;61865;50.232;18.614;2022-11-04T11:30:53;15.20;82.60
73586;DHT22;61865;50.232;18.614;2022-11-04T11:33:16;15.20;81.20
73586;DHT22;61865;50.232;18.614;2022-11-04T11:35:39;15.20;81.00
73586;DHT22;61865;50.232;18.614;2022-11-04T11:38:02;15.20;81.60
73586;DHT22;61865;50.232;18.614;2022-11-04T11:40:28;15.20;80.00
73586;DHT22;61865;50.232;18.614;2022-11-04T11:42:51;15.30;82.70
73586;DHT22;61865;50.232;18.614;2022-11-04T11:45:14;15.40;83.60
73586;DHT22;61865;50.232;18.614;2022-11-04T11:47:36;15.50;83.40
73586;DHT22;61865;50.232;18.614;2022-11-04T11:50:04;15.70;80.90
73586;DHT22;61865;50.232;18.614;2022-11-04T11:52:29;15.80;76.60
73586;DHT22;61865;50.232;18.614;2022-11-04T11:54:52;15.90;76.70
73586;DHT22;61865;50.232;18.614;2022-11-04T11:57:21;15.90;76.10
73586;DHT22;61865;50.232;18.614;2022-11-04T11:59:46;15.90;77.00
73586;DHT22;61865;50.232;18.614;2022-11-04T12:02:23;15.70;76.60
73586;DHT22;61865;50.232;18.614;2022-11-04T12:04:47;15.70;75.70
73586;DHT22;61865;50.232;18.614;2022-11-04T12:07:11;15.50;77.60
73586;DHT22;61865;50.232;18.614;2022-11-04T12:09:36;15.40;78.80
73586;DHT22;61865;50.232;18.614;2022-11-04T12:12:13;15.20;80.50
73586;DHT22;61865;50.232;18.614;2022-11-04T12:14:42;15.30;82.90
73586;DHT22;61865;50.232;18.614;2022-11-04T12:17:12;15.20;83.50
73586;DHT22;61865;50.232;18.614;2022-11-04T12:19:43;15.30;82.50
73586;DHT22;61865;50.232;18.614;2022-11-04T12:22:11;15.10;83.90
73586;DHT22;61865;50.232;18.614;2022-11-04T12:24:37;15.20;81.70
73586;DHT22;61865;50.232;18.614;2022-11-04T12:27:06;15.20;84.20
73586;DHT22;61865;50.232;18.614;2022-11-04T12:29:35;15.20;87.00
73586;DHT22;61865;50.232;18.614;2022-11-04T12:32:02;15.10;86.70
73586;DHT22;61865;50.232;18.614;2022-11-04T12:34:29;15.10;86.40
73586;DHT22;61865;50.232;18.614;2022-11-04T12:36:58;15.20;85.20
73586;DHT22;61865;50.232;18.614;2022-11-04T12:39:27;15.20;86.80
73586;DHT22;61865;50.232;18.614;2022-11-04T12:41:54;15.30;84.80
73586;DHT22;61865;50.232;18.614;2022-11-04T12:44:21;15.30;85.20
73586;DHT22;61865;50.232;18.614;2022-11-04T12:46:46;15.30;84.50
73586;DHT22;61865;50.232;18.614;2022-11-04T12:49:22;15.30;84.80
73586;DHT22;61865;50.232;18.614;2022-11-04T12:51:48;15.30;86.10
73586;DHT22;61865;50.232;18.614;2022-11-04T12:54:32;15.40;87.20
73586;DHT22;61865;50.232;18.614;2022-11-04T12:57:02;15.40;87.00
73586;DHT22;61865;50.232;18.614;2022-11-04T13:02:17;15.50;84.50
73586;DHT22;61865;50.232;18.614;2022-11-04T13:04:42;15.40;85.60
73586;DHT22;61865;50.232;18.614;2022-11-04T13:07:07;15.40;85.70
73586;DHT22;61865;50.232;18.614;2022-11-04T13:09:33;15.40;86.00
73586;DHT22;61865;50.232;18.614;2022-11-04T13:11:56;15.30;86.70
73586;DHT22;61865;50.232;18.614;2022-11-04T13:14:20;15.20;88.40
73586;DHT22;61865;50.232;18.614;2022-11-04T13:16:51;15.20;89.90
73586;DHT22;61865;50.232;18.614;2022-11-04T13:19:19;15.20;92.30
73586;DHT22;61865;50.232;18.614;2022-11-04T13:21:44;15.10;97.80
73586;DHT22;61865;50.232;18.614;2022-11-04T13:24:12;15.10;99.90
73586;DHT22;61865;50.232;18.614;2022-11-04T13:26:35;15.10;99.90
73586;DHT22;61865;50.232;18.614;2022-11-04T13:28:58;15.10;99.00
73586;DHT22;61865;50.232;18.614;2022-11-04T13:31:25;15.00;98.60
73586;DHT22;61865;50.232;18.614;2022-11-04T13:33:50;14.90;97.40
73586;DHT22;61865;50.232;18.614;2022-11-04T13:36:18;14.90;99.70
73586;DHT22;61865;50.232;18.614;2022-11-04T13:38:44;14.90;99.90
73586;DHT22;61865;50.232;18.614;2022-11-04T13:41:24;14.80;99.90
73586;DHT22;61865;50.232;18.614;2022-11-04T13:43:47;14.80;99.90
73586;DHT22;61865;50.232;18.614;2022-11-04T13:46:17;14.80;99.90
73586;DHT22;61865;50.232;18.614;2022-11-04T13:48:40;14.70;99.90
73586;DHT22;61865;50.232;18.614;2022-11-04T13:51:09;14.70;99.40
73586;DHT22;61865;50.232;18.614;2022-11-04T13:56:26;14.50;99.90
73586;DHT22;61865;50.232;18.614;2022-11-04T13:58:50;14.30;99.90
73586;DHT22;61865;50.232;18.614;2022-11-04T14:01:24;14.40;99.90
73586;DHT22;61865;50.232;18.614;2022-11-04T14:03:49;14.40;99.90
73586;DHT22;61865;50.232;18.614;2022-11-04T14:06:12;14.40;99.90
73586;DHT22;61865;50.232;18.614;2022-11-04T14:08:34;14.40;99.90
73586;DHT22;61865;50.232;18.614;2022-11-04T14:11:00;14.30;99.90
73586;DHT22;61865;50.232;18.614;2022-11-04T14:13:49;14.20;99.90
73586;DHT22;61865;50.232;18.614;2022-11-04T14:16:41;14.20;99.90
73586;DHT22;61865;50.232;18.614;2022-11-04T14:22:03;14.20;99.90
73586;DHT22;61865;50.232;18.614;2022-11-04T14:24:25;14.10;99.90
73586;DHT22;61865;50.232;18.614;2022-11-04T14:26:48;14.10;99.90
73586;DHT22;61865;50.232;18.614;2022-11-04T14:29:14;13.90;99.90
73586;DHT22;61865;50.232;18.614;2022-11-04T14:31:38;13.60;99.90
73586;DHT22;61865;50.232;18.614;2022-11-04T14:34:01;13.40;99.90
73586;DHT22;61865;50.232;18.614;2022-11-04T14:36:27;13.40;99.90
73586;DHT22;61865;50.232;18.614;2022-11-04T14:38:51;13.40;99.90
73586;DHT22;61865;50.232;18.614;2022-11-04T14:41:16;13.50;99.90
73586;DHT22;61865;50.232;18.614;2022-11-04T14:43:42;13.50;99.90
73586;DHT22;61865;50.232;18.614;2022-11-04T14:46:06;13.40;99.90
73586;DHT22;61865;50.232;18.614;2022-11-04T14:48:28;13.40;99.90
73586;DHT22;61865;50.232;18.614;2022-11-04T14:50:51;13.40;99.90
73586;DHT22;61865;50.232;18.614;2022-11-04T14:53:14;13.40;99.90
73586;DHT22;61865;50.232;18.614;2022-11-04T14:55:40;13.40;99.90
73586;DHT22;61865;50.232;18.614;2022-11-04T14:58:19;13.40;99.90
73586;DHT22;61865;50.232;18.614;2022-11-04T15:00:49;13.40;99.90
73586;DHT22;61865;50.232;18.614;2022-11-04T15:03:14;13.20;99.90
73586;DHT22;61865;50.232;18.614;2022-11-04T15:05:37;13.10;99.90
73586;DHT22;61865;50.232;18.614;2022-11-04T15:07:59;12.90;99.90
73586;DHT22;61865;50.232;18.614;2022-11-04T15:10:21;12.80;99.90
73586;DHT22;61865;50.232;18.614;2022-11-04T15:12:44;12.70;99.90
73586;DHT22;61865;50.232;18.614;2022-11-04T15:15:27;12.60;99.90
73586;DHT22;61865;50.232;18.614;2022-11-04T15:17:49;12.60;99.90